Time;durP1;ratioP1;P1;durP2;ratioP2;P2;SDS_P1;SDS_P2;PMS_P1;PMS_P2;Temp;Humidity;BMP_temperature;BMP_pressure;BME280_temperature;BME280_humidity;BME280_pressure;Samples;Min_cycle;Max_cycle;Signal;HPM_P1;HPM_P2
2021/04/05 00:00:15;;;;;;;29.60;18.40;;;;;;;;;;5093175;28;20670;-62
2021/04/05 00:02:42;;;;;;;29.77;19.48;;;;;;;;;;5093165;28;20204;-61
2021/04/05 00:05:10;;;;;;;32.45;20.30;;;;;;;;;;5093457;28;20303;-62
2021/04/05 00:07:37;;;;;;;28.35;20.63;;;;;;;;;;5093004;28;20210;-62
2021/04/05 00:10:06;;;;;;;32.97;20.83;;;;;;;;;;5093161;28;20208;-62
2021/04/05 00:12:33;;;;;;;30.23;21.70;;;;;;;;;;5093429;28;20197;-61
2021/04/05 00:15:00;;;;;;;38.45;22.92;;;;;;;;;;5093398;28;20226;-62
2021/04/05 00:17:27;;;;;;;34.60;23.27;;;;;;;;;;5093123;28;20201;-62
2021/04/05 00:19:54;;;;;;;32.75;23.65;;;;;;;;;;5093056;28;20203;-62
2021/04/05 00:22:21;;;;;;;38.33;25.13;;;;;;;;;;5093487;28;20202;-61
2021/04/05 00:24:47;;;;;;;36.03;24.13;;;;;;;;;;5097586;28;20593;-62
2021/04/05 00:27:14;;;;;;;31.95;21.63;;;;;;;;;;5097230;28;20203;-62
2021/04/05 00:29:41;;;;;;;31.05;22.20;;;;;;;;;;5097056;28;20274;-62
2021/04/05 00:32:09;;;;;;;34.92;24.90;;;;;;;;;;5097415;28;20206;-61
2021/04/05 00:34:36;;;;;;;44.72;26.02;;;;;;;;;;5097011;28;20608;-62
2021/04/05 00:37:02;;;;;;;34.97;22.52;;;;;;;;;;5096996;28;20674;-61
2021/04/05 00:39:29;;;;;;;36.45;23.52;;;;;;;;;;5097336;28;20567;-62
2021/04/05 00:41:56;;;;;;;35.33;22.50;;;;;;;;;;5096903;28;20210;-62
2021/04/05 00:44:23;;;;;;;33.33;22.02;;;;;;;;;;5097162;28;20223;-62
2021/04/05 00:46:49;;;;;;;35.13;23.42;;;;;;;;;;5096853;28;20668;-62
2021/04/05 00:49:17;;;;;;;30.92;21.95;;;;;;;;;;5096763;28;20268;-62
2021/04/05 00:51:44;;;;;;;33.47;22.02;;;;;;;;;;5096865;28;20211;-63
2021/04/05 00:54:11;;;;;;;29.30;21.80;;;;;;;;;;5096603;28;20675;-62
2021/04/05 00:56:38;;;;;;;35.83;24.58;;;;;;;;;;5096697;28;20208;-62
2021/04/05 00:59:05;;;;;;;33.17;23.13;;;;;;;;;;5096949;28;20221;-61
2021/04/05 01:01:32;;;;;;;35.42;22.05;;;;;;;;;;5096915;28;20207;-61
2021/04/05 01:03:59;;;;;;;34.45;22.83;;;;;;;;;;5096683;28;20199;-62
2021/04/05 01:06:28;;;;;;;32.17;21.48;;;;;;;;;;5096630;28;20209;-61
2021/04/05 01:08:55;;;;;;;30.02;22.15;;;;;;;;;;5096661;28;20223;-62
2021/04/05 01:11:23;;;;;;;25.98;20.40;;;;;;;;;;5096651;28;20204;-60
2021/04/05 01:13:50;;;;;;;30.25;21.60;;;;;;;;;;5096646;28;20213;-61
2021/04/05 01:16:17;;;;;;;27.52;19.70;;;;;;;;;;5097069;28;20225;-61
2021/04/05 01:18:44;;;;;;;33.90;21.80;;;;;;;;;;5096813;28;20256;-62
2021/04/05 01:21:11;;;;;;;27.50;20.50;;;;;;;;;;5096926;28;20200;-62
2021/04/05 01:23:39;;;;;;;29.60;19.40;;;;;;;;;;5096315;28;20211;-61
2021/04/05 01:26:06;;;;;;;30.92;19.40;;;;;;;;;;5096666;28;20232;-62
2021/04/05 01:28:33;;;;;;;27.35;19.77;;;;;;;;;;5096824;28;20249;-62
2021/04/05 01:31:00;;;;;;;28.20;21.33;;;;;;;;;;5096575;28;20598;-61
2021/04/05 01:33:28;;;;;;;30.35;19.83;;;;;;;;;;5096739;28;20224;-62
2021/04/05 01:35:55;;;;;;;30.25;21.00;;;;;;;;;;5095901;28;20219;-62
2021/04/05 01:38:23;;;;;;;30.80;17.92;;;;;;;;;;5096132;28;20203;-61
2021/04/05 01:40:53;;;;;;;27.25;19.52;;;;;;;;;;5097364;28;20616;-60
2021/04/05 01:43:20;;;;;;;31.50;20.25;;;;;;;;;;5099335;28;20613;-62
2021/04/05 01:45:46;;;;;;;28.77;20.02;;;;;;;;;;5099055;28;20592;-62
2021/04/05 01:48:14;;;;;;;26.80;20.40;;;;;;;;;;5099667;28;20566;-61
2021/04/05 01:50:41;;;;;;;30.58;20.80;;;;;;;;;;5097939;28;20240;-62
2021/04/05 01:53:08;;;;;;;24.67;18.83;;;;;;;;;;5097594;28;20213;-61
2021/04/05 01:55:36;;;;;;;30.83;21.00;;;;;;;;;;5097731;28;20592;-61
2021/04/05 01:58:04;;;;;;;30.70;20.25;;;;;;;;;;5097504;28;20205;-60
2021/04/05 02:00:33;;;;;;;28.50;19.45;;;;;;;;;;5097311;28;20205;-62
2021/04/05 02:03:04;;;;;;;28.30;20.02;;;;;;;;;;5097570;28;20258;-62
2021/04/05 02:05:31;;;;;;;31.83;20.48;;;;;;;;;;5096947;28;20227;-62
2021/04/05 02:07:58;;;;;;;30.52;21.95;;;;;;;;;;5096545;28;20647;-62
2021/04/05 02:10:27;;;;;;;27.25;18.73;;;;;;;;;;5097155;28;20203;-61
2021/04/05 02:12:54;;;;;;;28.15;20.33;;;;;;;;;;5096283;28;20312;-60
2021/04/05 02:15:24;;;;;;;28.35;19.85;;;;;;;;;;5095945;28;20226;-62
2021/04/05 02:17:51;;;;;;;29.13;18.73;;;;;;;;;;5095694;28;20238;-61
2021/04/05 02:20:18;;;;;;;30.83;21.23;;;;;;;;;;5095624;28;20675;-62
2021/04/05 02:22:46;;;;;;;30.05;18.58;;;;;;;;;;5096112;28;20230;-63
2021/04/05 02:25:13;;;;;;;28.35;20.00;;;;;;;;;;5095300;28;20222;-62
2021/04/05 02:27:42;;;;;;;34.25;20.63;;;;;;;;;;5095681;28;20204;-62
2021/04/05 02:30:09;;;;;;;31.27;20.67;;;;;;;;;;5095418;28;20679;-62
2021/04/05 02:32:38;;;;;;;26.15;16.35;;;;;;;;;;5096032;28;20203;-62
2021/04/05 02:35:05;;;;;;;30.13;21.27;;;;;;;;;;5095848;28;20249;-62
2021/04/05 02:37:32;;;;;;;31.50;21.23;;;;;;;;;;5095426;28;20199;-62
2021/04/05 02:40:01;;;;;;;33.08;20.90;;;;;;;;;;5094877;28;20203;-61
2021/04/05 02:42:27;;;;;;;30.60;20.23;;;;;;;;;;5095787;28;20256;-61
2021/04/05 02:44:55;;;;;;;31.30;20.05;;;;;;;;;;5095117;28;20223;-61
2021/04/05 02:47:22;;;;;;;32.75;20.58;;;;;;;;;;5094036;28;20196;-61
2021/04/05 02:49:50;;;;;;;30.08;19.23;;;;;;;;;;5094634;28;20230;-61
2021/04/05 02:52:17;;;;;;;29.05;19.52;;;;;;;;;;5095009;28;20199;-61
2021/04/05 02:54:45;;;;;;;32.97;20.08;;;;;;;;;;5094993;28;20344;-62
2021/04/05 02:57:12;;;;;;;35.50;20.25;;;;;;;;;;5095643;28;20203;-62
2021/04/05 02:59:39;;;;;;;28.33;19.13;;;;;;;;;;5095300;28;20211;-61
2021/04/05 03:02:06;;;;;;;35.80;22.70;;;;;;;;;;5094282;28;20570;-61
2021/04/05 03:04:33;;;;;;;29.80;19.88;;;;;;;;;;5094250;28;20219;-62
2021/04/05 03:07:00;;;;;;;30.55;21.55;;;;;;;;;;5094192;28;20679;-62
2021/04/05 03:09:27;;;;;;;29.58;23.15;;;;;;;;;;5094477;28;20223;-62
2021/04/05 03:11:57;;;;;;;36.42;22.10;;;;;;;;;;5094675;28;20256;-62
2021/04/05 03:14:24;;;;;;;29.38;21.00;;;;;;;;;;5094756;28;20705;-61
2021/04/05 03:16:52;;;;;;;28.55;19.40;;;;;;;;;;5094531;28;20207;-61
2021/04/05 03:19:21;;;;;;;30.30;19.88;;;;;;;;;;5094598;28;20571;-62
2021/04/05 03:21:48;;;;;;;46.70;21.88;;;;;;;;;;5095411;28;20213;-62
2021/04/05 03:24:15;;;;;;;29.40;21.08;;;;;;;;;;5094286;28;20277;-63
2021/04/05 03:26:42;;;;;;;31.75;22.58;;;;;;;;;;5093900;28;20204;-62
2021/04/05 03:29:11;;;;;;;33.38;21.92;;;;;;;;;;5093766;28;20216;-62
2021/04/05 03:31:39;;;;;;;31.00;20.67;;;;;;;;;;5093803;28;20207;-62
2021/04/05 03:34:10;;;;;;;30.95;21.52;;;;;;;;;;5093891;28;20210;-62
2021/04/05 03:36:39;;;;;;;29.23;20.83;;;;;;;;;;5094068;28;20199;-62
2021/04/05 03:39:06;;;;;;;30.50;21.60;;;;;;;;;;5094088;28;20202;-61
2021/04/05 03:41:38;;;;;;;37.72;24.25;;;;;;;;;;5094218;28;20218;-62
2021/04/05 03:44:11;;;;;;;34.47;24.10;;;;;;;;;;5094388;28;20563;-61
2021/04/05 03:46:39;;;;;;;34.63;23.60;;;;;;;;;;5094349;28;20191;-61
2021/04/05 03:49:12;;;;;;;34.10;21.90;;;;;;;;;;5094066;28;20230;-61
2021/04/05 03:51:41;;;;;;;48.03;25.83;;;;;;;;;;5094514;28;20257;-61
2021/04/05 03:54:09;;;;;;;33.92;22.88;;;;;;;;;;5093655;28;20675;-61
2021/04/05 03:56:39;;;;;;;33.20;24.90;;;;;;;;;;5094082;28;20208;-61
2021/04/05 03:59:08;;;;;;;33.55;23.23;;;;;;;;;;5096411;28;20206;-62
2021/04/05 04:01:39;;;;;;;32.70;22.67;;;;;;;;;;5106497;28;20213;-63
2021/04/05 04:04:11;;;;;;;30.85;21.17;;;;;;;;;;5111181;28;20188;-61
2021/04/05 04:08:02;;;;;;;39.67;24.13;;;;;;;;;;5129329;27;20532;-62
2021/04/05 04:10:31;;;;;;;35.88;23.35;;;;;;;;;;5112454;28;20238;-62
2021/04/05 04:12:59;;;;;;;36.63;24.35;;;;;;;;;;5111850;28;20642;-62
2021/04/05 04:15:26;;;;;;;33.00;21.65;;;;;;;;;;5111175;28;20796;-62
2021/04/05 04:17:53;;;;;;;34.00;23.27;;;;;;;;;;5111265;28;20199;-62
2021/04/05 04:20:20;;;;;;;31.83;23.52;;;;;;;;;;5111144;28;20619;-61
2021/04/05 04:22:48;;;;;;;32.33;22.90;;;;;;;;;;5110941;28;20203;-61
2021/04/05 04:25:16;;;;;;;29.40;22.27;;;;;;;;;;5110928;28;20707;-62
2021/04/05 04:27:44;;;;;;;32.03;23.23;;;;;;;;;;5110665;28;20215;-61
2021/04/05 04:30:16;;;;;;;32.80;22.90;;;;;;;;;;5110686;28;20738;-63
2021/04/05 04:32:43;;;;;;;35.95;22.73;;;;;;;;;;5110926;28;20211;-62
2021/04/05 04:35:10;;;;;;;36.58;23.90;;;;;;;;;;5110412;28;20727;-61
2021/04/05 04:37:40;;;;;;;37.10;21.05;;;;;;;;;;5110821;28;20203;-62
2021/04/05 04:40:08;;;;;;;29.90;20.33;;;;;;;;;;5110326;28;20199;-60
2021/04/05 04:42:35;;;;;;;30.05;19.48;;;;;;;;;;5110691;28;20206;-61
2021/04/05 04:45:02;;;;;;;27.50;21.30;;;;;;;;;;5110796;28;20234;-62
2021/04/05 04:47:29;;;;;;;30.95;22.05;;;;;;;;;;5110662;28;20231;-63
2021/04/05 04:49:56;;;;;;;34.72;21.75;;;;;;;;;;5112323;28;20199;-63
2021/04/05 04:52:23;;;;;;;30.50;20.45;;;;;;;;;;5112242;28;20200;-62
2021/04/05 04:54:51;;;;;;;30.45;21.25;;;;;;;;;;5110466;28;20682;-61
2021/04/05 04:57:18;;;;;;;31.35;20.88;;;;;;;;;;5110675;28;20264;-62
2021/04/05 04:59:46;;;;;;;29.48;19.13;;;;;;;;;;5111258;28;20208;-60
2021/04/05 05:02:12;;;;;;;29.73;22.08;;;;;;;;;;5110192;28;20203;-61
2021/04/05 05:04:39;;;;;;;29.92;19.85;;;;;;;;;;5110211;28;20222;-61
2021/04/05 05:07:06;;;;;;;31.38;20.30;;;;;;;;;;5110031;28;20716;-60
2021/04/05 05:09:33;;;;;;;29.73;19.95;;;;;;;;;;5110681;28;20211;-62
2021/04/05 05:12:00;;;;;;;32.83;22.20;;;;;;;;;;5109900;28;20210;-60
2021/04/05 05:14:27;;;;;;;33.22;22.85;;;;;;;;;;5110692;28;20234;-61
2021/04/05 05:16:58;;;;;;;35.95;22.73;;;;;;;;;;5111721;28;20201;-60
2021/04/05 05:19:25;;;;;;;36.28;23.27;;;;;;;;;;5097603;28;20229;-62
2021/04/05 05:21:54;;;;;;;30.73;22.45;;;;;;;;;;5098109;28;20208;-61
2021/04/05 05:24:21;;;;;;;29.88;20.15;;;;;;;;;;5097199;28;20242;-63
2021/04/05 05:26:49;;;;;;;35.20;24.77;;;;;;;;;;5100406;28;20245;-61
2021/04/05 05:29:18;;;;;;;24.48;16.55;;;;;;;;;;5101098;28;20574;-63
2021/04/05 05:31:45;;;;;;;23.25;17.05;;;;;;;;;;5100645;28;20208;-63
2021/04/05 05:34:14;;;;;;;28.63;19.88;;;;;;;;;;5098216;28;20205;-62
2021/04/05 05:36:42;;;;;;;33.65;21.10;;;;;;;;;;5096796;28;20275;-63
2021/04/05 05:39:09;;;;;;;39.45;21.33;;;;;;;;;;5096909;28;20200;-62
2021/04/05 05:41:44;;;;;;;33.90;22.20;;;;;;;;;;5097947;28;20206;-63
2021/04/05 05:44:15;;;;;;;28.70;19.02;;;;;;;;;;5096582;28;20187;-62
2021/04/05 05:46:44;;;;;;;28.15;21.10;;;;;;;;;;5096674;28;20204;-62
2021/04/05 05:49:27;;;;;;;36.15;22.50;;;;;;;;;;5100816;28;20204;-62
2021/04/05 05:52:06;;;;;;;35.50;23.23;;;;;;;;;;5096624;28;20189;-62
2021/04/05 05:54:52;;;;;;;34.38;21.20;;;;;;;;;;5095334;28;20662;-63
2021/04/05 05:57:21;;;;;;;34.92;24.00;;;;;;;;;;5095841;28;20188;-62
2021/04/05 05:59:52;;;;;;;33.08;22.05;;;;;;;;;;5095937;28;20551;-62
2021/04/05 06:02:33;;;;;;;34.45;21.52;;;;;;;;;;5096701;28;20191;-61
2021/04/05 06:05:07;;;;;;;29.30;20.73;;;;;;;;;;5095832;28;20222;-61
2021/04/05 06:07:37;;;;;;;27.75;19.50;;;;;;;;;;5096402;28;20224;-61
2021/04/05 06:10:09;;;;;;;32.35;20.52;;;;;;;;;;5096381;28;20200;-62
2021/04/05 06:12:41;;;;;;;26.60;20.52;;;;;;;;;;5097521;28;20213;-61
2021/04/05 06:15:14;;;;;;;26.15;21.05;;;;;;;;;;5096443;28;20318;-63
2021/04/05 06:17:53;;;;;;;23.48;19.55;;;;;;;;;;5096496;28;20237;-63
2021/04/05 06:20:22;;;;;;;30.80;20.55;;;;;;;;;;5098024;28;20192;-62
2021/04/05 06:23:00;;;;;;;31.48;21.23;;;;;;;;;;5097856;28;20207;-62
2021/04/05 06:25:32;;;;;;;27.25;19.55;;;;;;;;;;5096434;28;20227;-61
2021/04/05 06:28:05;;;;;;;25.50;19.38;;;;;;;;;;5096534;28;20205;-61
2021/04/05 06:30:36;;;;;;;27.58;20.02;;;;;;;;;;5095550;28;20643;-62
2021/04/05 06:33:08;;;;;;;31.83;19.52;;;;;;;;;;5096855;28;20558;-62
2021/04/05 06:35:41;;;;;;;27.55;18.88;;;;;;;;;;5095979;28;20702;-62
2021/04/05 06:38:11;;;;;;;24.63;18.50;;;;;;;;;;5095589;28;20347;-62
2021/04/05 06:40:40;;;;;;;21.85;15.95;;;;;;;;;;5095419;28;20243;-61
2021/04/05 06:43:22;;;;;;;27.65;17.73;;;;;;;;;;5094859;28;20202;-61
2021/04/05 06:46:03;;;;;;;20.60;16.38;;;;;;;;;;5094968;28;20298;-62
2021/04/05 06:48:49;;;;;;;27.20;17.60;;;;;;;;;;5092509;28;20204;-61
2021/04/05 06:51:32;;;;;;;20.65;16.35;;;;;;;;;;5094803;28;20200;-61
2021/04/05 06:54:14;;;;;;;25.65;18.70;;;;;;;;;;5094473;28;20642;-62
2021/04/05 06:56:50;;;;;;;25.98;19.15;;;;;;;;;;5095103;28;20188;-62
2021/04/05 06:59:35;;;;;;;26.67;17.15;;;;;;;;;;5096003;28;20226;-61
2021/04/05 07:02:25;;;;;;;19.90;16.00;;;;;;;;;;5094644;28;20239;-61
2021/04/05 07:04:56;;;;;;;17.25;13.75;;;;;;;;;;5078977;28;20225;-62
2021/04/05 07:07:30;;;;;;;21.00;15.18;;;;;;;;;;5094422;28;20219;-61
2021/04/05 07:10:03;;;;;;;19.88;14.80;;;;;;;;;;5094206;28;20188;-63
2021/04/05 07:12:47;;;;;;;9.57;6.70;;;;;;;;;;5094623;28;20191;-62
2021/04/05 07:15:18;;;;;;;5.78;4.45;;;;;;;;;;5094370;28;20317;-62
2021/04/05 07:17:49;;;;;;;3.75;2.80;;;;;;;;;;5094779;28;20184;-63
2021/04/05 07:20:18;;;;;;;5.63;3.00;;;;;;;;;;5098567;28;20186;-62
2021/04/05 07:22:52;;;;;;;2.10;1.83;;;;;;;;;;5098206;28;20216;-61
2021/04/05 07:25:22;;;;;;;3.05;1.50;;;;;;;;;;5097935;28;20455;-66
2021/04/05 07:27:55;;;;;;;1.73;1.45;;;;;;;;;;5098053;28;20478;-62
2021/04/05 07:30:22;;;;;;;2.50;1.23;;;;;;;;;;5101846;28;20188;-62
2021/04/05 07:32:59;;;;;;;2.08;1.63;;;;;;;;;;5099962;28;20207;-60
2021/04/05 07:35:28;;;;;;;1.52;0.95;;;;;;;;;;5096439;28;20220;-62
2021/04/05 07:38:02;;;;;;;1.95;1.48;;;;;;;;;;5095438;28;20200;-62
2021/04/05 07:40:40;;;;;;;2.55;1.73;;;;;;;;;;5094543;28;20184;-61
2021/04/05 07:43:10;;;;;;;2.13;1.45;;;;;;;;;;5095056;28;20192;-62
2021/04/05 07:45:40;;;;;;;1.63;1.20;;;;;;;;;;5094302;28;20223;-63
2021/04/05 07:48:11;;;;;;;1.23;1.10;;;;;;;;;;5094175;28;20212;-62
2021/04/05 07:50:41;;;;;;;1.30;1.10;;;;;;;;;;5094044;28;20189;-63
2021/04/05 07:53:13;;;;;;;3.28;0.93;;;;;;;;;;5093521;28;20196;-63
2021/04/05 07:55:40;;;;;;;2.70;1.50;;;;;;;;;;5093401;28;20313;-63
2021/04/05 07:58:11;;;;;;;1.35;1.10;;;;;;;;;;5094061;28;20282;-61
2021/04/05 08:00:45;;;;;;;1.00;0.90;;;;;;;;;;5093584;28;20188;-63
2021/04/05 08:03:18;;;;;;;1.58;1.33;;;;;;;;;;5093482;28;20188;-63
2021/04/05 08:05:56;;;;;;;1.33;0.98;;;;;;;;;;5093868;28;20227;-61
2021/04/05 08:08:39;;;;;;;1.40;0.80;;;;;;;;;;5093648;28;20676;-62
2021/04/05 08:11:10;;;;;;;1.90;1.25;;;;;;;;;;5094106;28;20271;-62
2021/04/05 08:13:40;;;;;;;3.17;1.20;;;;;;;;;;5093777;28;20633;-62
2021/04/05 08:16:12;;;;;;;1.83;0.98;;;;;;;;;;5094226;28;20228;-62
2021/04/05 08:18:40;;;;;;;3.35;0.98;;;;;;;;;;5094377;28;20204;-62
2021/04/05 08:21:10;;;;;;;2.13;0.80;;;;;;;;;;5093801;28;20204;-62
2021/04/05 08:23:46;;;;;;;4.20;1.10;;;;;;;;;;5093650;28;20671;-62
2021/04/05 08:26:23;;;;;;;3.50;1.67;;;;;;;;;;5094181;28;20239;-62
2021/04/05 08:28:57;;;;;;;4.05;1.70;;;;;;;;;;5094512;28;20185;-61
2021/04/05 08:31:32;;;;;;;1.85;0.98;;;;;;;;;;5094527;28;20189;-59
2021/04/05 08:34:14;;;;;;;2.67;1.05;;;;;;;;;;5094083;28;20569;-62
2021/04/05 08:36:49;;;;;;;4.60;0.90;;;;;;;;;;5091766;28;20203;-61
2021/04/05 08:39:20;;;;;;;3.58;1.10;;;;;;;;;;5097373;28;20180;-61
2021/04/05 08:41:48;;;;;;;1.75;1.00;;;;;;;;;;5097719;28;20193;-62
2021/04/05 08:44:18;;;;;;;1.83;0.93;;;;;;;;;;5096301;28;20259;-63
2021/04/05 08:46:46;;;;;;;2.30;1.02;;;;;;;;;;5095711;28;20221;-62
2021/04/05 08:49:17;;;;;;;3.78;1.30;;;;;;;;;;5095320;28;20203;-62
2021/04/05 08:51:45;;;;;;;2.00;0.90;;;;;;;;;;5094870;28;20189;-62
2021/04/05 08:54:12;;;;;;;5.25;1.15;;;;;;;;;;5096383;28;20295;-63
2021/04/05 08:56:42;;;;;;;2.60;1.30;;;;;;;;;;5097060;28;20253;-63
2021/04/05 08:59:12;;;;;;;1.65;1.17;;;;;;;;;;5097008;28;20216;-63
2021/04/05 09:01:41;;;;;;;4.47;1.25;;;;;;;;;;5097011;28;20253;-64
2021/04/05 09:04:10;;;;;;;2.38;1.30;;;;;;;;;;5097200;28;20200;-62
2021/04/05 09:06:40;;;;;;;4.57;1.90;;;;;;;;;;5097449;28;20224;-63
2021/04/05 09:09:10;;;;;;;2.35;1.13;;;;;;;;;;5096750;28;20204;-61
2021/04/05 09:11:38;;;;;;;2.15;1.10;;;;;;;;;;5096369;28;20663;-63
2021/04/05 09:14:07;;;;;;;3.08;1.20;;;;;;;;;;5096217;28;20208;-61
2021/04/05 09:16:45;;;;;;;2.03;1.08;;;;;;;;;;5096162;28;20196;-61
2021/04/05 09:19:20;;;;;;;3.60;1.88;;;;;;;;;;5096468;28;20272;-62
2021/04/05 09:22:00;;;;;;;2.15;1.10;;;;;;;;;;5097364;28;20187;-61
2021/04/05 09:24:50;;;;;;;5.18;1.00;;;;;;;;;;5097780;28;20612;-61
2021/04/05 09:27:35;;;;;;;3.08;1.40;;;;;;;;;;5097033;28;20214;-61
2021/04/05 09:30:28;;;;;;;4.35;1.63;;;;;;;;;;5096885;28;20574;-60
2021/04/05 09:33:16;;;;;;;5.68;1.50;;;;;;;;;;5096075;28;20245;-63
2021/04/05 09:35:51;;;;;;;2.90;1.50;;;;;;;;;;5096266;28;20761;-64
2021/04/05 09:38:35;;;;;;;5.57;1.30;;;;;;;;;;5096150;28;20180;-63
2021/04/05 09:41:29;;;;;;;7.20;1.75;;;;;;;;;;5096272;28;20187;-63
2021/04/05 09:44:18;;;;;;;7.57;2.00;;;;;;;;;;5059975;28;20684;-61
2021/04/05 09:47:00;;;;;;;5.53;1.70;;;;;;;;;;5096296;28;20209;-61
2021/04/05 09:49:34;;;;;;;7.55;1.98;;;;;;;;;;5094216;28;20204;-61
2021/04/05 09:52:22;;;;;;;5.95;2.10;;;;;;;;;;5096165;28;20286;-62
2021/04/05 09:54:49;;;;;;;3.17;1.40;;;;;;;;;;5096168;28;20223;-62
2021/04/05 09:57:18;;;;;;;3.35;1.20;;;;;;;;;;5095929;28;20196;-63
2021/04/05 09:59:47;;;;;;;2.78;1.38;;;;;;;;;;5096470;28;20230;-63
2021/04/05 10:02:15;;;;;;;3.00;1.33;;;;;;;;;;5097368;28;20199;-63
2021/04/05 10:04:44;;;;;;;3.47;2.08;;;;;;;;;;5095615;28;20222;-62
2021/04/05 10:07:12;;;;;;;3.10;1.45;;;;;;;;;;5095320;28;20637;-62
2021/04/05 10:09:40;;;;;;;2.78;1.50;;;;;;;;;;5095349;28;20584;-63
2021/04/05 10:12:08;;;;;;;3.65;1.30;;;;;;;;;;5095564;28;20197;-65
2021/04/05 10:14:40;;;;;;;4.90;1.38;;;;;;;;;;5095313;28;20216;-63
2021/04/05 10:17:07;;;;;;;5.95;1.27;;;;;;;;;;5095114;28;20435;-65
2021/04/05 10:19:34;;;;;;;4.50;1.20;;;;;;;;;;5095581;28;20363;-63
2021/04/05 10:22:04;;;;;;;3.83;1.17;;;;;;;;;;5095529;28;20282;-60
2021/04/05 10:24:31;;;;;;;0.80;0.70;;;;;;;;;;5094859;28;20223;-61
2021/04/05 10:26:59;;;;;;;2.35;0.68;;;;;;;;;;5094969;28;20215;-61
2021/04/05 10:29:29;;;;;;;2.00;0.75;;;;;;;;;;5095222;28;20250;-61
2021/04/05 10:31:56;;;;;;;2.65;1.00;;;;;;;;;;5095115;28;20207;-62
2021/04/05 10:34:24;;;;;;;1.10;0.80;;;;;;;;;;5095202;28;20228;-60
2021/04/05 10:36:55;;;;;;;1.42;1.00;;;;;;;;;;5094798;28;20202;-60
2021/04/05 10:39:23;;;;;;;1.63;1.23;;;;;;;;;;5094742;28;20636;-61
2021/04/05 10:41:54;;;;;;;1.40;1.30;;;;;;;;;;5094945;28;20581;-61
2021/04/05 10:44:23;;;;;;;3.10;1.40;;;;;;;;;;5094851;28;20222;-61
2021/04/05 10:46:54;;;;;;;3.25;1.15;;;;;;;;;;5094782;28;20220;-60
2021/04/05 10:49:25;;;;;;;3.08;1.60;;;;;;;;;;5095318;28;20194;-60
2021/04/05 10:51:53;;;;;;;2.65;1.30;;;;;;;;;;5095471;28;20601;-62
2021/04/05 10:54:23;;;;;;;3.70;1.27;;;;;;;;;;5095749;28;20229;-60
2021/04/05 10:56:52;;;;;;;6.15;2.10;;;;;;;;;;5096113;28;20214;-60
2021/04/05 10:59:20;;;;;;;1.40;1.08;;;;;;;;;;5095767;28;20572;-62
2021/04/05 11:01:49;;;;;;;3.50;1.20;;;;;;;;;;5095656;28;20223;-61
2021/04/05 11:04:17;;;;;;;5.35;1.38;;;;;;;;;;5094760;28;20216;-61
2021/04/05 11:06:45;;;;;;;2.80;1.90;;;;;;;;;;5095432;28;20224;-62
2021/04/05 11:09:12;;;;;;;3.10;1.27;;;;;;;;;;5095321;28;20250;-61
2021/04/05 11:11:40;;;;;;;4.43;1.67;;;;;;;;;;5094837;28;20210;-61
2021/04/05 11:14:14;;;;;;;5.93;1.80;;;;;;;;;;5094624;28;20200;-60
2021/04/05 11:16:48;;;;;;;2.90;1.30;;;;;;;;;;5094098;28;20580;-61
2021/04/05 11:19:17;;;;;;;4.63;1.65;;;;;;;;;;5093895;28;20666;-61
2021/04/05 11:21:49;;;;;;;1.60;1.40;;;;;;;;;;5093826;28;20577;-61
2021/04/05 11:24:17;;;;;;;2.85;1.60;;;;;;;;;;5094264;28;20225;-62
2021/04/05 11:26:46;;;;;;;7.20;1.60;;;;;;;;;;5104808;28;20223;-61
2021/04/05 11:29:14;;;;;;;3.30;1.45;;;;;;;;;;5103310;28;20200;-60
2021/04/05 11:31:42;;;;;;;4.00;1.70;;;;;;;;;;5104938;28;20199;-61
2021/04/05 11:34:10;;;;;;;7.07;1.67;;;;;;;;;;5105611;28;20204;-62
2021/04/05 11:36:38;;;;;;;6.60;1.77;;;;;;;;;;5105344;28;20193;-62
2021/04/05 11:39:08;;;;;;;1.83;1.02;;;;;;;;;;5107729;28;20207;-61
2021/04/05 11:41:35;;;;;;;5.60;1.02;;;;;;;;;;5109902;28;20591;-61
2021/04/05 11:44:03;;;;;;;2.10;1.30;;;;;;;;;;5107082;28;20204;-61
2021/04/05 11:46:31;;;;;;;3.60;1.20;;;;;;;;;;5102759;28;20204;-62
2021/04/05 11:49:02;;;;;;;7.13;2.03;;;;;;;;;;5102893;28;20575;-61
2021/04/05 11:51:29;;;;;;;5.07;1.50;;;;;;;;;;5100117;28;20200;-62
2021/04/05 11:53:58;;;;;;;4.30;1.42;;;;;;;;;;5106696;28;20199;-61
2021/04/05 11:56:26;;;;;;;2.55;1.40;;;;;;;;;;5106619;28;20213;-61
2021/04/05 11:58:59;;;;;;;3.63;1.33;;;;;;;;;;5106957;28;20196;-61
2021/04/05 12:01:26;;;;;;;5.72;1.40;;;;;;;;;;5103105;28;20222;-61
2021/04/05 12:03:58;;;;;;;2.95;2.20;;;;;;;;;;5104916;28;20200;-62
2021/04/05 12:06:26;;;;;;;4.53;1.92;;;;;;;;;;5105540;28;20239;-62
2021/04/05 12:08:56;;;;;;;3.50;2.00;;;;;;;;;;5108551;28;20200;-61
2021/04/05 12:11:26;;;;;;;3.88;1.17;;;;;;;;;;5105866;28;20208;-61
2021/04/05 12:13:54;;;;;;;4.07;1.70;;;;;;;;;;5096376;28;20192;-61
2021/04/05 12:16:23;;;;;;;3.33;1.20;;;;;;;;;;5094065;28;20620;-61
2021/04/05 12:18:52;;;;;;;3.17;1.20;;;;;;;;;;5093393;28;20315;-62
2021/04/05 12:21:20;;;;;;;3.38;1.58;;;;;;;;;;5093575;28;20254;-62
2021/04/05 12:23:54;;;;;;;4.32;1.85;;;;;;;;;;5093118;28;20204;-60
2021/04/05 12:26:23;;;;;;;4.03;1.30;;;;;;;;;;5093475;28;20194;-61
2021/04/05 12:28:51;;;;;;;4.90;2.15;;;;;;;;;;5095922;28;20198;-62
2021/04/05 12:31:18;;;;;;;5.97;1.67;;;;;;;;;;5097623;28;20204;-62
2021/04/05 12:33:45;;;;;;;1.63;1.10;;;;;;;;;;5097282;28;20610;-62
2021/04/05 12:36:12;;;;;;;3.58;1.23;;;;;;;;;;5097372;28;20270;-62
2021/04/05 12:38:40;;;;;;;2.08;1.00;;;;;;;;;;5096965;28;20668;-60
2021/04/05 12:41:08;;;;;;;3.90;1.70;;;;;;;;;;5097180;28;20204;-62
2021/04/05 12:43:36;;;;;;;3.83;1.60;;;;;;;;;;5097405;28;20255;-63
2021/04/05 12:46:04;;;;;;;2.55;1.25;;;;;;;;;;5097977;28;20226;-61
2021/04/05 12:48:32;;;;;;;5.90;2.00;;;;;;;;;;5096901;28;20590;-62
2021/04/05 12:51:01;;;;;;;2.53;2.00;;;;;;;;;;5097154;28;20664;-62
2021/04/05 12:53:29;;;;;;;3.47;1.83;;;;;;;;;;5096829;28;20305;-62
2021/04/05 12:55:58;;;;;;;3.22;1.77;;;;;;;;;;5097084;28;20228;-62
2021/04/05 12:58:28;;;;;;;2.85;1.10;;;;;;;;;;5096725;28;20274;-61
2021/04/05 13:00:55;;;;;;;3.55;1.63;;;;;;;;;;5097108;28;20581;-60
2021/04/05 13:03:24;;;;;;;5.55;2.03;;;;;;;;;;5096951;28;20198;-62
2021/04/05 13:05:55;;;;;;;4.03;1.75;;;;;;;;;;5096138;28;20255;-62
2021/04/05 13:08:22;;;;;;;2.97;2.33;;;;;;;;;;5096452;28;20694;-62
2021/04/05 13:10:51;;;;;;;4.43;1.33;;;;;;;;;;5096467;28;20696;-62
2021/04/05 13:13:21;;;;;;;2.70;1.20;;;;;;;;;;5096430;28;20203;-61
2021/04/05 13:15:54;;;;;;;8.23;2.00;;;;;;;;;;5096277;28;20227;-62
2021/04/05 13:18:23;;;;;;;4.32;1.60;;;;;;;;;;5096718;28;20187;-61
2021/04/05 13:20:51;;;;;;;4.10;1.35;;;;;;;;;;5096435;28;20626;-61
2021/04/05 13:23:23;;;;;;;7.43;2.30;;;;;;;;;;5096725;28;20277;-61
2021/04/05 13:25:54;;;;;;;6.40;1.50;;;;;;;;;;5096546;28;20216;-61
2021/04/05 13:28:23;;;;;;;4.45;1.48;;;;;;;;;;5096004;28;20699;-60
2021/04/05 13:30:50;;;;;;;4.53;1.30;;;;;;;;;;5096399;28;20222;-61
2021/04/05 13:33:22;;;;;;;2.70;1.63;;;;;;;;;;5096425;28;20206;-62
2021/04/05 13:35:49;;;;;;;3.45;1.15;;;;;;;;;;5096138;28;20216;-61
2021/04/05 13:38:22;;;;;;;3.78;1.90;;;;;;;;;;5096953;28;20200;-62
2021/04/05 13:40:49;;;;;;;1.50;1.10;;;;;;;;;;5097032;28;20317;-62
2021/04/05 13:43:18;;;;;;;2.85;1.20;;;;;;;;;;5097697;28;20201;-61
2021/04/05 13:45:46;;;;;;;3.08;0.85;;;;;;;;;;5098412;28;20220;-60
2021/04/05 13:48:14;;;;;;;2.08;1.20;;;;;;;;;;5096629;28;20220;-62
2021/04/05 13:50:43;;;;;;;3.42;1.70;;;;;;;;;;5096432;28;20200;-61
2021/04/05 13:53:11;;;;;;;3.50;1.20;;;;;;;;;;5096331;28;20208;-63
2021/04/05 13:55:39;;;;;;;3.08;1.42;;;;;;;;;;5096443;28;20220;-62
2021/04/05 13:58:11;;;;;;;3.00;1.08;;;;;;;;;;5096707;28;20196;-61
2021/04/05 14:00:40;;;;;;;3.90;1.70;;;;;;;;;;5096803;28;20295;-61
2021/04/05 14:03:10;;;;;;;3.47;1.50;;;;;;;;;;5095634;28;20575;-61
2021/04/05 14:05:37;;;;;;;1.52;1.10;;;;;;;;;;5096120;28;20589;-62
2021/04/05 14:08:05;;;;;;;1.67;0.95;;;;;;;;;;5095913;28;20651;-62
2021/04/05 14:10:32;;;;;;;2.80;0.70;;;;;;;;;;5095534;28;20288;-61
2021/04/05 14:13:02;;;;;;;2.60;1.20;;;;;;;;;;5095274;28;20529;-63
2021/04/05 14:15:29;;;;;;;2.15;1.13;;;;;;;;;;5095623;28;20462;-62
2021/04/05 14:17:57;;;;;;;3.40;1.45;;;;;;;;;;5095604;28;20196;-62
2021/04/05 14:20:29;;;;;;;4.15;1.52;;;;;;;;;;5095266;28;20204;-61
2021/04/05 14:23:01;;;;;;;1.88;1.17;;;;;;;;;;5095606;28;20188;-61
2021/04/05 14:25:29;;;;;;;2.13;1.27;;;;;;;;;;5095559;28;20225;-62
2021/04/05 14:28:00;;;;;;;3.80;1.55;;;;;;;;;;5095398;28;20223;-61
2021/04/05 14:30:30;;;;;;;3.25;1.30;;;;;;;;;;5095266;28;20185;-62
2021/04/05 14:32:57;;;;;;;4.63;3.55;;;;;;;;;;5095249;28;20216;-63
2021/04/05 14:35:28;;;;;;;3.90;2.20;;;;;;;;;;5095128;28;20634;-63
2021/04/05 14:37:56;;;;;;;5.15;1.25;;;;;;;;;;5095801;28;20181;-62
2021/04/05 14:40:23;;;;;;;3.38;1.50;;;;;;;;;;5096121;28;20208;-62
2021/04/05 14:42:54;;;;;;;5.53;1.70;;;;;;;;;;5096117;28;20211;-62
2021/04/05 14:45:23;;;;;;;2.08;0.85;;;;;;;;;;5096968;28;20227;-61
2021/04/05 14:47:51;;;;;;;3.97;1.17;;;;;;;;;;5096524;28;20216;-61